Darstellungsparameter: Aktuell verwendete Einstellungen:
Skalierung der Graphiken ... ?
xyx+y,   Skalierungsfaktor:      Skalierung: Modus: x, Faktor: 1
Darstellungszeitraum ... ?
Vom - - bis: - -   Zeitraum: 03.09.2020 - 03.09.2020
Min/Max/Avg-Anzeige ... ?
Zeige MMA aktuell
Zeige MMA Monat
Zeige MMA alles
Zeige --A aktuell
Zeige --A Monat
Zeige --A alles
Keine MMA-Anzeige
MMA:
Keine MMA-Graphiken
MMA-Basis: 03.09.2020 - 03.09.2020
Quicknavigation für Darstellung... ?
Tage:      1T, 2T, 3T, 5T -1T -2T -3T -5T +1T +2T +3T +5T
Wochen: 1W, 2W, 3W -1W -2W -3W +1W +2W +3W
Monate: 1M, 3M, 6M -1M -3M -6M +1M +3M +6M
Jahre:    1J, 3J, 5J, 10J -1J -3J -5J -10J +1J +3J +5J +10J
Nutze für die Darstellung ... ?
Originaldaten oder Mittelwerte auf ...
Stundenbasis Tagesbasis Wochenbasis
Monatsbasis Jahresbasis      Datenbasis: Original-Daten
Darstellen als:
Statistik (Auto) Statistik J:M      Darstellung:
Zur Graphik,    zurück zur Übersicht aller Sensoren.
 
Tabellarische Datenbersicht: ?
 
Sensor: Nr:Datum:Temp:Feuchte:Taupunkt:
Aussen-T/F 1 03-09-2020 00:00:00 12.8 C 84 % 10.17 C
2 03-09-2020 00:05:00 12.8 C 84 % 10.17 C
3 03-09-2020 00:10:00 12.7 C 84 % 10.07 C
4 03-09-2020 00:15:00 12.6 C 84 % 9.97 C
5 03-09-2020 00:20:00 12.4 C 85 % 9.95 C
6 03-09-2020 00:25:00 12.4 C 85 % 9.95 C
7 03-09-2020 00:30:00 12.3 C 85 % 9.85 C
8 03-09-2020 00:35:00 12.2 C 85 % 9.76 C
9 03-09-2020 00:40:00 12.1 C 86 % 9.83 C
10 03-09-2020 00:45:00 11.9 C 86 % 9.64 C
11 03-09-2020 00:50:00 11.9 C 86 % 9.64 C
12 03-09-2020 00:55:00 11.8 C 86 % 9.54 C
13 03-09-2020 01:00:00 11.8 C 87 % 9.71 C
14 03-09-2020 01:05:00 11.7 C 87 % 9.61 C
15 03-09-2020 01:10:00 11.6 C 87 % 9.51 C
16 03-09-2020 01:15:00 11.6 C 87 % 9.51 C
17 03-09-2020 01:20:00 11.5 C 87 % 9.41 C
18 03-09-2020 01:25:00 11.4 C 88 % 9.49 C
19 03-09-2020 01:30:00 11.3 C 88 % 9.39 C
20 03-09-2020 01:35:00 11.3 C 88 % 9.39 C
21 03-09-2020 01:40:00 11.2 C 88 % 9.29 C
22 03-09-2020 01:45:00 11.2 C 88 % 9.29 C
23 03-09-2020 01:50:00 11.1 C 89 % 9.36 C
24 03-09-2020 01:55:00 10.9 C 89 % 9.16 C
25 03-09-2020 02:00:00 10.8 C 89 % 9.06 C
Sensor: Nr:Datum:Temp:Feuchte:Taupunkt:
Aussen-T/F 26 03-09-2020 02:05:00 10.8 C 89 % 9.06 C
27 03-09-2020 02:10:00 10.7 C 89 % 8.96 C
28 03-09-2020 02:15:00 10.7 C 89 % 8.96 C
29 03-09-2020 02:20:00 10.6 C 90 % 9.03 C
30 03-09-2020 02:25:00 10.6 C 90 % 9.03 C
31 03-09-2020 02:30:00 10.5 C 90 % 8.93 C
32 03-09-2020 02:35:00 10.4 C 90 % 8.83 C
33 03-09-2020 02:40:00 10.4 C 90 % 8.83 C
34 03-09-2020 02:45:00 10.4 C 91 % 9 C
35 03-09-2020 02:50:00 10.4 C 91 % 9 C
36 03-09-2020 02:55:00 10.4 C 91 % 9 C
37 03-09-2020 03:00:00 10.4 C 91 % 9 C
38 03-09-2020 03:05:00 10.4 C 91 % 9 C
39 03-09-2020 03:10:00 10.4 C 91 % 9 C
40 03-09-2020 03:15:00 10.3 C 91 % 8.9 C
41 03-09-2020 03:20:00 10.3 C 91 % 8.9 C
42 03-09-2020 03:25:00 10.3 C 92 % 9.06 C
43 03-09-2020 03:30:00 10.2 C 92 % 8.96 C
44 03-09-2020 03:35:00 10.2 C 92 % 8.96 C
45 03-09-2020 03:40:00 10.2 C 92 % 8.96 C
46 03-09-2020 03:45:00 10.2 C 92 % 8.96 C
47 03-09-2020 03:50:00 10.2 C 92 % 8.96 C
48 03-09-2020 03:55:00 10.2 C 92 % 8.96 C
49 03-09-2020 04:00:00 10.1 C 92 % 8.86 C
50 03-09-2020 04:05:00 10.1 C 92 % 8.86 C
Sensor: Nr:Datum:Temp:Feuchte:Taupunkt:
Aussen-T/F 51 03-09-2020 04:10:00 10.1 C 92 % 8.86 C
52 03-09-2020 04:15:00 10 C 92 % 8.76 C
53 03-09-2020 04:20:00 10 C 92 % 8.76 C
54 03-09-2020 04:25:00 10.1 C 93 % 9.02 C
55 03-09-2020 04:30:00 10.1 C 93 % 9.02 C
56 03-09-2020 04:35:00 10.1 C 93 % 9.02 C
57 03-09-2020 04:40:00 10.1 C 93 % 9.02 C
58 03-09-2020 04:45:00 10.1 C 93 % 9.02 C
59 03-09-2020 04:50:00 10 C 93 % 8.92 C
60 03-09-2020 04:55:00 9.9 C 93 % 8.82 C
61 03-09-2020 05:00:00 9.9 C 93 % 8.82 C
62 03-09-2020 05:05:00 9.9 C 93 % 8.82 C
63 03-09-2020 05:10:00 9.8 C 93 % 8.72 C
64 03-09-2020 05:15:00 9.8 C 93 % 8.72 C
65 03-09-2020 05:20:00 9.7 C 93 % 8.62 C
66 03-09-2020 05:25:00 9.7 C 93 % 8.62 C
67 03-09-2020 05:30:00 9.7 C 93 % 8.62 C
68 03-09-2020 05:35:00 9.8 C 94 % 8.88 C
69 03-09-2020 05:40:00 9.8 C 94 % 8.88 C
70 03-09-2020 05:45:00 9.9 C 94 % 8.98 C
71 03-09-2020 05:50:00 10 C 94 % 9.08 C
72 03-09-2020 05:55:00 10.1 C 94 % 9.18 C
73 03-09-2020 06:00:00 10.1 C 94 % 9.18 C
74 03-09-2020 06:05:00 10.1 C 94 % 9.18 C
75 03-09-2020 06:10:00 10.1 C 94 % 9.18 C
Sensor: Nr:Datum:Temp:Feuchte:Taupunkt:
Aussen-T/F 76 03-09-2020 06:15:00 10.1 C 94 % 9.18 C
77 03-09-2020 06:20:00 10.1 C 94 % 9.18 C
78 03-09-2020 06:25:00 10.1 C 94 % 9.18 C
79 03-09-2020 06:30:00 10.2 C 94 % 9.28 C
80 03-09-2020 06:35:00 10.2 C 94 % 9.28 C
81 03-09-2020 06:40:00 10.2 C 94 % 9.28 C
82 03-09-2020 06:45:00 10.2 C 94 % 9.28 C
83 03-09-2020 06:50:00 10.2 C 94 % 9.28 C
84 03-09-2020 06:55:00 10.1 C 94 % 9.18 C
85 03-09-2020 07:00:00 10.2 C 94 % 9.28 C
86 03-09-2020 07:05:00 10.2 C 94 % 9.28 C
87 03-09-2020 07:10:00 10.2 C 94 % 9.28 C
88 03-09-2020 07:15:00 10.3 C 94 % 9.38 C
89 03-09-2020 07:20:00 10.3 C 94 % 9.38 C
90 03-09-2020 07:25:00 10.3 C 94 % 9.38 C
91 03-09-2020 07:30:00 10.4 C 94 % 9.48 C
92 03-09-2020 07:35:00 10.4 C 94 % 9.48 C
93 03-09-2020 07:40:00 10.4 C 94 % 9.48 C
94 03-09-2020 07:45:00 10.5 C 94 % 9.58 C
95 03-09-2020 07:50:00 10.5 C 94 % 9.58 C
96 03-09-2020 07:55:00 10.6 C 94 % 9.68 C
97 03-09-2020 08:00:00 10.7 C 94 % 9.77 C
98 03-09-2020 08:05:00 10.7 C 94 % 9.77 C
99 03-09-2020 08:10:00 10.8 C 94 % 9.87 C
100 03-09-2020 08:15:00 10.9 C 94 % 9.97 C
Sensor: Nr:Datum:Temp:Feuchte:Taupunkt:
Aussen-T/F 101 03-09-2020 08:20:00 11.1 C 94 % 10.17 C
102 03-09-2020 08:25:00 11.2 C 94 % 10.27 C
103 03-09-2020 08:30:00 11.3 C 93 % 10.21 C
104 03-09-2020 08:35:00 11.4 C 93 % 10.31 C
105 03-09-2020 08:40:00 11.6 C 93 % 10.51 C
106 03-09-2020 08:45:00 11.7 C 92 % 10.44 C
107 03-09-2020 08:50:00 11.8 C 91 % 10.38 C
108 03-09-2020 08:55:00 11.9 C 91 % 10.48 C
109 03-09-2020 09:00:00 12 C 90 % 10.41 C
110 03-09-2020 09:05:00 12.1 C 90 % 10.51 C
111 03-09-2020 09:10:00 12.2 C 90 % 10.61 C
112 03-09-2020 09:15:00 12.3 C 89 % 10.54 C
113 03-09-2020 09:20:00 12.5 C 89 % 10.74 C
114 03-09-2020 09:25:00 12.7 C 89 % 10.94 C
115 03-09-2020 09:30:00 12.9 C 89 % 11.13 C
116 03-09-2020 09:35:00 13 C 88 % 11.06 C
117 03-09-2020 09:40:00 13.2 C 88 % 11.26 C
118 03-09-2020 09:45:00 13.3 C 88 % 11.36 C
119 03-09-2020 09:50:00 13.4 C 87 % 11.28 C
120 03-09-2020 09:55:00 13.6 C 87 % 11.48 C
121 03-09-2020 10:00:00 13.7 C 86 % 11.4 C
122 03-09-2020 10:05:00 13.8 C 85 % 11.32 C
123 03-09-2020 10:10:00 13.9 C 86 % 11.6 C
124 03-09-2020 10:15:00 14.1 C 85 % 11.62 C
125 03-09-2020 10:20:00 14.2 C 84 % 11.54 C
Sensor: Nr:Datum:Temp:Feuchte:Taupunkt:
Aussen-T/F 126 03-09-2020 10:25:00 14.4 C 84 % 11.73 C
127 03-09-2020 10:30:00 14.7 C 84 % 12.03 C
128 03-09-2020 10:35:00 14.9 C 83 % 12.04 C
129 03-09-2020 10:40:00 15.1 C 83 % 12.24 C
130 03-09-2020 10:45:00 15.3 C 82 % 12.25 C
131 03-09-2020 10:50:00 15.5 C 82 % 12.44 C
132 03-09-2020 10:55:00 15.7 C 82 % 12.64 C
133 03-09-2020 11:00:00 16 C 81 % 12.74 C
134 03-09-2020 11:05:00 16.3 C 80 % 12.85 C
135 03-09-2020 11:10:00 16.7 C 78 % 12.85 C
136 03-09-2020 11:15:00 17.1 C 77 % 13.04 C
137 03-09-2020 11:20:00 17.4 C 75 % 12.93 C
138 03-09-2020 11:25:00 17.7 C 74 % 13.01 C
139 03-09-2020 11:30:00 18 C 72 % 12.88 C
140 03-09-2020 11:35:00 18.2 C 72 % 13.07 C
141 03-09-2020 11:40:00 18.4 C 71 % 13.05 C
142 03-09-2020 11:45:00 18.5 C 69 % 12.71 C
143 03-09-2020 11:50:00 18.6 C 70 % 13.02 C
144 03-09-2020 11:55:00 18.7 C 70 % 13.12 C
145 03-09-2020 12:00:00 18.8 C 69 % 13 C
146 03-09-2020 12:05:00 18.8 C 68 % 12.77 C
147 03-09-2020 12:10:00 19.1 C 69 % 13.28 C
148 03-09-2020 12:15:00 19.2 C 68 % 13.15 C
149 03-09-2020 12:20:00 19.2 C 68 % 13.15 C
150 03-09-2020 12:25:00 19.3 C 67 % 13.02 C
Sensor: Nr:Datum:Temp:Feuchte:Taupunkt:
Aussen-T/F 151 03-09-2020 12:30:00 19.4 C 66 % 12.89 C
152 03-09-2020 12:35:00 19.5 C 66 % 12.98 C
153 03-09-2020 12:40:00 19.6 C 66 % 13.08 C
154 03-09-2020 12:45:00 19.7 C 65 % 12.94 C
155 03-09-2020 12:50:00 19.7 C 66 % 13.17 C
156 03-09-2020 12:55:00 19.7 C 65 % 12.94 C
157 03-09-2020 13:00:00 19.7 C 64 % 12.7 C
158 03-09-2020 13:05:00 19.6 C 66 % 13.08 C
159 03-09-2020 13:10:00 19.5 C 66 % 12.98 C
160 03-09-2020 13:15:00 19.5 C 66 % 12.98 C
161 03-09-2020 13:20:00 19.3 C 66 % 12.79 C
162 03-09-2020 13:25:00 19.3 C 67 % 13.02 C
163 03-09-2020 13:30:00 19.1 C 69 % 13.28 C
164 03-09-2020 13:35:00 18.9 C 73 % 13.96 C
165 03-09-2020 13:40:00 18.8 C 76 % 14.48 C
166 03-09-2020 13:45:00 18.6 C 77 % 14.49 C
167 03-09-2020 13:50:00 18.4 C 79 % 14.69 C
168 03-09-2020 13:55:00 18.3 C 79 % 14.6 C
169 03-09-2020 14:00:00 18.1 C 79 % 14.4 C
170 03-09-2020 14:05:00 17.9 C 78 % 14.01 C
171 03-09-2020 14:10:00 17.8 C 79 % 14.11 C
172 03-09-2020 14:15:00 17.7 C 78 % 13.82 C
173 03-09-2020 14:20:00 17.6 C 79 % 13.92 C
174 03-09-2020 14:25:00 17.6 C 79 % 13.92 C
175 03-09-2020 14:30:00 17.5 C 78 % 13.62 C
Sensor: Nr:Datum:Temp:Feuchte:Taupunkt:
Aussen-T/F 176 03-09-2020 14:35:00 17.6 C 79 % 13.92 C
177 03-09-2020 14:40:00 17.7 C 79 % 14.01 C
178 03-09-2020 14:45:00 17.7 C 79 % 14.01 C
179 03-09-2020 14:50:00 17.8 C 78 % 13.91 C
180 03-09-2020 14:55:00 17.8 C 79 % 14.11 C
181 03-09-2020 15:00:00 17.9 C 79 % 14.21 C
182 03-09-2020 15:05:00 17.9 C 79 % 14.21 C
183 03-09-2020 15:10:00 17.9 C 80 % 14.4 C
184 03-09-2020 15:15:00 18.1 C 82 % 14.98 C
185 03-09-2020 15:20:00 18.1 C 82 % 14.98 C
186 03-09-2020 15:25:00 18.2 C 82 % 15.08 C
187 03-09-2020 15:30:00 18.1 C 79 % 14.4 C
188 03-09-2020 15:35:00 18.1 C 80 % 14.6 C
189 03-09-2020 15:40:00 18.1 C 79 % 14.4 C
190 03-09-2020 15:45:00 18.1 C 78 % 14.21 C
191 03-09-2020 15:50:00 17.9 C 80 % 14.4 C
192 03-09-2020 15:55:00 17.5 C 82 % 14.39 C
193 03-09-2020 16:00:00 17.2 C 84 % 14.47 C
194 03-09-2020 16:05:00 16.7 C 85 % 14.17 C
195 03-09-2020 16:10:00 16.4 C 87 % 14.23 C
196 03-09-2020 16:15:00 16.2 C 89 % 14.39 C
197 03-09-2020 16:20:00 16.1 C 89 % 14.29 C
198 03-09-2020 16:25:00 16.1 C 90 % 14.46 C
199 03-09-2020 16:30:00 16.1 C 91 % 14.63 C
200 03-09-2020 16:35:00 16.1 C 91 % 14.63 C
Sensor: Nr:Datum:Temp:Feuchte:Taupunkt:
Aussen-T/F 201 03-09-2020 16:40:00 16 C 91 % 14.53 C
202 03-09-2020 16:45:00 15.8 C 91 % 14.33 C
203 03-09-2020 16:50:00 15.8 C 92 % 14.5 C
204 03-09-2020 16:55:00 15.9 C 92 % 14.6 C
205 03-09-2020 17:00:00 15.9 C 93 % 14.77 C
206 03-09-2020 17:05:00 15.9 C 93 % 14.77 C
207 03-09-2020 17:10:00 15.9 C 92 % 14.6 C
208 03-09-2020 17:15:00 15.9 C 92 % 14.6 C
209 03-09-2020 17:20:00 15.8 C 92 % 14.5 C
210 03-09-2020 17:25:00 15.8 C 92 % 14.5 C
211 03-09-2020 17:30:00 15.8 C 93 % 14.67 C
212 03-09-2020 17:35:00 15.8 C 93 % 14.67 C
213 03-09-2020 17:40:00 15.9 C 93 % 14.77 C
214 03-09-2020 17:45:00 15.8 C 93 % 14.67 C
215 03-09-2020 17:50:00 15.9 C 93 % 14.77 C
216 03-09-2020 17:55:00 15.9 C 93 % 14.77 C
217 03-09-2020 18:00:00 15.9 C 93 % 14.77 C
218 03-09-2020 18:05:00 15.9 C 93 % 14.77 C
219 03-09-2020 18:10:00 15.9 C 93 % 14.77 C
220 03-09-2020 18:15:00 15.9 C 93 % 14.77 C
221 03-09-2020 18:20:00 16.1 C 94 % 15.13 C
222 03-09-2020 18:25:00 16.2 C 94 % 15.23 C
223 03-09-2020 18:30:00 16.3 C 94 % 15.33 C
224 03-09-2020 18:35:00 16.3 C 94 % 15.33 C
225 03-09-2020 18:40:00 16.3 C 94 % 15.33 C
Sensor: Nr:Datum:Temp:Feuchte:Taupunkt:
Aussen-T/F 226 03-09-2020 18:45:00 16.2 C 93 % 15.07 C
227 03-09-2020 18:50:00 16.2 C 93 % 15.07 C
228 03-09-2020 18:55:00 16.2 C 93 % 15.07 C
229 03-09-2020 19:00:00 16.1 C 93 % 14.97 C
230 03-09-2020 19:05:00 16.1 C 93 % 14.97 C
231 03-09-2020 19:10:00 16.1 C 94 % 15.13 C
232 03-09-2020 19:15:00 16.1 C 94 % 15.13 C
233 03-09-2020 19:20:00 16.1 C 94 % 15.13 C
234 03-09-2020 19:25:00 16 C 94 % 15.03 C
235 03-09-2020 19:30:00 15.9 C 94 % 14.94 C
236 03-09-2020 19:35:00 15.9 C 94 % 14.94 C
237 03-09-2020 19:40:00 15.8 C 94 % 14.84 C
238 03-09-2020 19:45:00 15.8 C 94 % 14.84 C
239 03-09-2020 19:50:00 15.8 C 94 % 14.84 C
240 03-09-2020 19:55:00 15.7 C 94 % 14.74 C
241 03-09-2020 20:00:00 15.7 C 94 % 14.74 C
242 03-09-2020 20:05:00 15.7 C 94 % 14.74 C
243 03-09-2020 20:10:00 15.6 C 94 % 14.64 C
244 03-09-2020 20:15:00 15.6 C 94 % 14.64 C
245 03-09-2020 20:20:00 15.6 C 94 % 14.64 C
246 03-09-2020 20:25:00 15.6 C 94 % 14.64 C
247 03-09-2020 20:30:00 15.5 C 94 % 14.54 C
248 03-09-2020 20:35:00 15.4 C 94 % 14.44 C
249 03-09-2020 20:40:00 15.4 C 94 % 14.44 C
250 03-09-2020 20:45:00 15.3 C 94 % 14.34 C
Sensor: Nr:Datum:Temp:Feuchte:Taupunkt:
Aussen-T/F 251 03-09-2020 20:50:00 15.3 C 94 % 14.34 C
252 03-09-2020 20:55:00 15.3 C 94 % 14.34 C
253 03-09-2020 21:00:00 15.3 C 94 % 14.34 C
254 03-09-2020 21:05:00 15.3 C 94 % 14.34 C
255 03-09-2020 21:10:00 15.2 C 94 % 14.24 C
256 03-09-2020 21:15:00 15.2 C 94 % 14.24 C
257 03-09-2020 21:20:00 15.2 C 94 % 14.24 C
258 03-09-2020 21:25:00 15.3 C 95 % 14.5 C
259 03-09-2020 21:30:00 15.3 C 95 % 14.5 C
260 03-09-2020 21:35:00 15.3 C 95 % 14.5 C
261 03-09-2020 21:40:00 15.3 C 95 % 14.5 C
262 03-09-2020 21:45:00 15.3 C 95 % 14.5 C
263 03-09-2020 21:50:00 15.3 C 95 % 14.5 C
264 03-09-2020 21:55:00 15.4 C 95 % 14.6 C
265 03-09-2020 22:00:00 15.4 C 95 % 14.6 C
266 03-09-2020 22:05:00 15.5 C 95 % 14.7 C
267 03-09-2020 22:10:00 15.6 C 94 % 14.64 C
268 03-09-2020 22:15:00 15.6 C 94 % 14.64 C
269 03-09-2020 22:20:00 15.6 C 95 % 14.8 C
270 03-09-2020 22:25:00 15.7 C 95 % 14.9 C
271 03-09-2020 22:30:00 15.7 C 94 % 14.74 C
272 03-09-2020 22:35:00 15.7 C 94 % 14.74 C
273 03-09-2020 22:40:00 15.7 C 94 % 14.74 C
274 03-09-2020 22:45:00 15.7 C 94 % 14.74 C
275 03-09-2020 22:50:00 15.7 C 94 % 14.74 C
Sensor: Nr:Datum:Temp:Feuchte:Taupunkt:
Aussen-T/F 276 03-09-2020 22:55:00 15.7 C 94 % 14.74 C
277 03-09-2020 23:00:00 15.7 C 94 % 14.74 C
278 03-09-2020 23:05:00 15.7 C 94 % 14.74 C
279 03-09-2020 23:10:00 15.7 C 94 % 14.74 C
280 03-09-2020 23:15:00 15.7 C 94 % 14.74 C
281 03-09-2020 23:20:00 15.7 C 94 % 14.74 C
282 03-09-2020 23:25:00 15.7 C 94 % 14.74 C
283 03-09-2020 23:30:00 15.7 C 94 % 14.74 C
284 03-09-2020 23:35:00 15.8 C 94 % 14.84 C
285 03-09-2020 23:40:00 15.8 C 94 % 14.84 C
286 03-09-2020 23:45:00 15.8 C 94 % 14.84 C
287 03-09-2020 23:50:00 15.9 C 94 % 14.94 C
288 03-09-2020 23:55:00 15.9 C 94 % 14.94 C

Legende:
   Min
   Max


Maximal/Minimal-Werte vom 03.09.2020 - 03.09.2020

Sensor Min Max Avg
Temp
(Aussen-T/F)
9.7 °C
03-09-2020  05:20:00
19.7 °C
03-09-2020  12:45:00
14.24 °C
Feuchte
(Aussen-T/F)
64 %
03-09-2020  13:00:00
95 %
03-09-2020  21:25:00
87.94 %
Taupunkt
(Aussen-T/F)
8.62 C
03-09-2020  05:20:00
15.33 C
03-09-2020  18:30:00
12.14 C

Die Daten stammen von einer Davis Vantage Pro 2 Wetter-Station und werden unter Linux mit der Software wview2wettercgi und aufbereitet. Alle Angaben erfolgen ohne Gewähr für ihre Vollständigkeit oder Richtigkeit.
Kontakt: Rainer Krienke krienke@uni-koblenz.de . Meine Webseiten an der Uni Koblenz oder privat.
Version: $Revision: 0.78 $